createdAt,value
2022-09-26T00:00:34.771Z,12.15
2022-09-26T00:01:38.917Z,12.12
2022-09-26T00:02:40.446Z,12.16
2022-09-26T00:03:49.584Z,12.27
2022-09-26T00:04:50.981Z,12.33
2022-09-26T00:05:52.442Z,12.33
2022-09-26T00:06:55.943Z,12.25
2022-09-26T00:07:57.350Z,12.26
2022-09-26T00:08:59.237Z,12.21
2022-09-26T00:10:00.661Z,12.21
2022-09-26T00:11:07.486Z,12.24
2022-09-26T00:12:08.927Z,12.20
2022-09-26T00:13:10.344Z,12.18
2022-09-26T00:14:18.857Z,12.21
2022-09-26T00:15:20.298Z,12.20
2022-09-26T00:16:22.288Z,12.37
2022-09-26T00:17:23.736Z,12.49
2022-09-26T00:18:25.578Z,12.52
2022-09-26T00:19:27.065Z,12.50
2022-09-26T00:20:28.481Z,12.44
2022-09-26T00:21:31.110Z,12.37
2022-09-26T00:22:32.676Z,12.35
2022-09-26T00:23:34.993Z,12.33
2022-09-26T00:24:36.535Z,12.30
2022-09-26T00:25:37.945Z,12.30
2022-09-26T00:26:39.589Z,12.27
2022-09-26T00:27:41.000Z,12.24
2022-09-26T00:28:43.068Z,12.24
2022-09-26T00:29:44.472Z,12.22
2022-09-26T00:30:45.997Z,12.22
2022-09-26T00:31:49.000Z,12.19
2022-09-26T00:32:50.335Z,12.19
2022-09-26T00:33:52.672Z,12.21
2022-09-26T00:34:54.067Z,12.23
2022-09-26T00:35:55.886Z,12.23
2022-09-26T00:36:57.296Z,12.25
2022-09-26T00:37:59.033Z,12.28
2022-09-26T00:39:00.779Z,12.27
2022-09-26T00:40:02.205Z,12.28
2022-09-26T00:41:04.471Z,12.23
2022-09-26T00:42:05.980Z,12.23
2022-09-26T00:43:42.085Z,12.23
2022-09-26T00:44:55.348Z,12.25
2022-09-26T00:46:19.810Z,12.23
2022-09-26T00:47:32.368Z,12.25
2022-09-26T00:48:36.322Z,12.25
2022-09-26T00:49:41.897Z,12.19
2022-09-26T00:50:43.874Z,12.16
2022-09-26T00:51:52.458Z,12.09
2022-09-26T00:53:01.465Z,12.05
2022-09-26T00:54:03.443Z,12.05
2022-09-26T00:55:07.432Z,12.09
2022-09-26T00:56:12.183Z,12.08
2022-09-26T00:57:18.319Z,12.08
2022-09-26T00:58:30.905Z,12.04
2022-09-26T00:59:41.873Z,12.07
2022-09-26T01:00:46.859Z,12.07
2022-09-26T01:01:49.998Z,12.03
2022-09-26T01:02:53.444Z,12.05
2022-09-26T01:03:56.111Z,12.12
2022-09-26T01:04:59.567Z,12.08
2022-09-26T01:06:01.374Z,12.04
2022-09-26T01:07:08.588Z,12.07
2022-09-26T01:08:11.907Z,12.12
2022-09-26T01:09:14.881Z,12.15
2022-09-26T01:10:16.777Z,12.15
2022-09-26T01:11:19.721Z,12.14
2022-09-26T01:12:21.268Z,12.10
2022-09-26T01:13:23.213Z,12.05
2022-09-26T01:14:24.960Z,12.01
2022-09-26T01:15:26.391Z,11.99
2022-09-26T01:16:28.156Z,12.00
2022-09-26T01:17:30.736Z,12.09
2022-09-26T01:18:32.327Z,12.01
2022-09-26T01:19:56.671Z,12.00
2022-09-26T01:21:10.128Z,11.91
2022-09-26T01:22:43.189Z,11.92
2022-09-26T01:23:44.574Z,11.87
2022-09-26T01:24:49.001Z,12.05
2022-09-26T01:26:10.574Z,11.97
2022-09-26T01:27:46.414Z,11.94
2022-09-26T01:29:25.674Z,11.96
2022-09-26T01:30:55.395Z,11.96
2022-09-26T01:32:43.245Z,11.96
2022-09-26T01:33:50.895Z,12.05
2022-09-26T01:35:04.584Z,12.15
2022-09-26T01:36:39.309Z,12.24
2022-09-26T01:37:56.212Z,12.21
2022-09-26T01:39:12.326Z,12.06
2022-09-26T01:40:24.382Z,12.01
2022-09-26T01:41:29.176Z,11.97
2022-09-26T01:42:51.964Z,11.98
2022-09-26T01:44:08.849Z,11.97
2022-09-26T01:45:18.991Z,11.99
2022-09-26T01:46:27.339Z,11.98
2022-09-26T01:47:44.271Z,11.97
2022-09-26T01:48:52.398Z,11.96
2022-09-26T01:50:03.027Z,11.97
2022-09-26T01:51:12.753Z,12.02
2022-09-26T01:52:48.395Z,12.04
2022-09-26T01:54:05.939Z,12.06
2022-09-26T01:55:10.801Z,12.05
2022-09-26T01:56:22.838Z,11.97
2022-09-26T01:57:31.745Z,11.99
2022-09-26T01:58:51.881Z,12.00
2022-09-26T01:59:58.753Z,11.99
2022-09-26T02:01:09.761Z,12.02
2022-09-26T02:02:19.445Z,12.05
2022-09-26T02:03:30.625Z,12.04
2022-09-26T02:04:39.499Z,12.03
2022-09-26T02:06:05.116Z,11.99
2022-09-26T02:07:18.041Z,12.02
2022-09-26T02:08:39.533Z,12.05
2022-09-26T02:09:45.037Z,12.11
2022-09-26T02:10:52.955Z,12.18
2022-09-26T02:11:59.028Z,12.15
2022-09-26T02:13:09.390Z,12.13
2022-09-26T02:14:17.584Z,12.10
2022-09-26T02:15:21.449Z,12.08
2022-09-26T02:16:32.125Z,12.08
2022-09-26T02:17:40.782Z,12.11
2022-09-26T02:18:47.860Z,12.10
2022-09-26T02:20:02.950Z,12.08
2022-09-26T02:21:20.780Z,12.02
2022-09-26T02:22:24.166Z,11.99
2022-09-26T02:23:25.975Z,12.03
2022-09-26T02:24:28.823Z,11.91
2022-09-26T02:25:31.145Z,12.01
2022-09-26T02:26:33.722Z,12.05
2022-09-26T02:27:35.388Z,12.02
2022-09-26T02:28:37.208Z,12.14
2022-09-26T02:29:39.370Z,12.08
2022-09-26T02:30:43.453Z,12.14
2022-09-26T02:31:51.795Z,12.13
2022-09-26T02:32:53.581Z,12.06
2022-09-26T02:33:55.484Z,12.04
2022-09-26T02:34:57.759Z,12.03
2022-09-26T02:35:59.559Z,11.97
2022-09-26T02:37:01.320Z,11.98
2022-09-26T02:38:03.440Z,12.01
2022-09-26T02:39:05.250Z,12.01
2022-09-26T02:40:07.501Z,12.01
2022-09-26T02:41:13.193Z,11.98
2022-09-26T02:42:22.254Z,11.92
2022-09-26T02:43:42.831Z,11.94
2022-09-26T02:45:02.607Z,11.96
2022-09-26T02:46:41.319Z,11.95
2022-09-26T02:48:13.199Z,11.87
2022-09-26T02:49:29.327Z,11.90
2022-09-26T02:51:07.761Z,11.80
2022-09-26T02:52:34.159Z,11.75
2022-09-26T02:53:54.975Z,11.81
2022-09-26T02:55:35.485Z,11.88
2022-09-26T02:56:58.772Z,11.96
2022-09-26T02:58:16.418Z,11.90
2022-09-26T02:59:35.285Z,11.91
2022-09-26T03:01:02.501Z,11.90
2022-09-26T03:02:15.803Z,11.91
2022-09-26T03:03:32.990Z,11.90
2022-09-26T03:05:00.611Z,11.82
2022-09-26T03:06:05.966Z,11.79
2022-09-26T03:07:11.988Z,11.76
2022-09-26T03:08:19.911Z,11.80
2022-09-26T03:09:24.311Z,11.82
2022-09-26T03:10:27.415Z,11.87
2022-09-26T03:11:30.364Z,11.95
2022-09-26T03:12:32.930Z,11.97
2022-09-26T03:13:37.619Z,11.93
2022-09-26T03:14:41.578Z,11.91
2022-09-26T03:15:48.686Z,11.89
2022-09-26T03:16:51.631Z,11.88
2022-09-26T03:17:55.057Z,11.90
2022-09-26T03:19:01.359Z,11.99
2022-09-26T03:20:12.087Z,11.97
2022-09-26T03:21:14.912Z,12.10
2022-09-26T03:22:17.022Z,12.01
2022-09-26T03:23:22.312Z,11.98
2022-09-26T03:24:24.819Z,11.95
2022-09-26T03:25:27.979Z,11.92
2022-09-26T03:26:31.145Z,11.84
2022-09-26T03:27:35.245Z,11.86
2022-09-26T03:28:38.051Z,11.88
2022-09-26T03:29:40.143Z,11.92
2022-09-26T03:30:41.576Z,11.86
2022-09-26T03:31:45.038Z,11.83
2022-09-26T03:32:46.950Z,11.86
2022-09-26T03:33:49.177Z,11.89
2022-09-26T03:34:51.197Z,11.88
2022-09-26T03:35:52.908Z,11.85
2022-09-26T03:36:54.320Z,11.82
2022-09-26T03:37:55.969Z,11.85
2022-09-26T03:38:57.701Z,11.98
2022-09-26T03:39:59.105Z,11.97
2022-09-26T03:41:00.621Z,11.97
2022-09-26T03:42:02.688Z,11.95
2022-09-26T03:43:04.163Z,11.92
2022-09-26T03:44:05.931Z,12.06
2022-09-26T03:45:12.985Z,12.04
2022-09-26T03:46:15.898Z,12.01
2022-09-26T03:47:18.155Z,12.01
2022-09-26T03:48:19.604Z,11.97
2022-09-26T03:49:21.523Z,11.95
2022-09-26T03:50:23.501Z,11.89
2022-09-26T03:51:25.063Z,11.86
2022-09-26T03:52:27.018Z,11.89
2022-09-26T03:53:30.577Z,11.92
2022-09-26T03:54:32.323Z,11.90
2022-09-26T03:55:33.758Z,11.91
2022-09-26T03:56:35.175Z,11.93
2022-09-26T03:57:36.630Z,11.90
2022-09-26T03:58:39.003Z,11.83
2022-09-26T03:59:40.749Z,11.86
2022-09-26T04:00:42.229Z,11.84
2022-09-26T04:01:44.330Z,11.84
2022-09-26T04:02:45.862Z,11.85
2022-09-26T04:03:50.826Z,11.84
2022-09-26T04:04:52.756Z,11.87
2022-09-26T04:05:54.178Z,11.88
2022-09-26T04:06:55.639Z,11.83
2022-09-26T04:07:59.112Z,11.82
2022-09-26T04:09:00.556Z,11.80
2022-09-26T04:10:02.779Z,11.82
2022-09-26T04:11:06.871Z,11.82
2022-09-26T04:12:08.374Z,11.82
2022-09-26T04:13:09.775Z,11.89
2022-09-26T04:14:11.340Z,11.89
2022-09-26T04:15:13.105Z,11.93
2022-09-26T04:16:15.103Z,11.86
2022-09-26T04:17:16.821Z,11.80
2022-09-26T04:18:18.312Z,11.80
2022-09-26T04:19:19.805Z,11.76
2022-09-26T04:20:21.608Z,11.78
2022-09-26T04:21:23.680Z,11.77
2022-09-26T04:22:25.648Z,11.77
2022-09-26T04:23:28.453Z,11.74
2022-09-26T04:24:30.636Z,11.68
2022-09-26T04:25:36.975Z,11.67
2022-09-26T04:26:40.447Z,11.64
2022-09-26T04:27:41.903Z,11.63
2022-09-26T04:28:43.930Z,11.63
2022-09-26T04:29:45.899Z,11.60
2022-09-26T04:30:47.381Z,11.57
2022-09-26T04:31:51.344Z,11.56
2022-09-26T04:32:52.889Z,11.57
2022-09-26T04:33:57.498Z,11.62
2022-09-26T04:34:58.948Z,11.60
2022-09-26T04:36:01.913Z,11.59
2022-09-26T04:37:03.250Z,11.59
2022-09-26T04:38:04.793Z,11.54
2022-09-26T04:39:06.970Z,11.57
2022-09-26T04:40:10.624Z,11.57
2022-09-26T04:41:13.242Z,11.55
2022-09-26T04:42:14.720Z,11.55
2022-09-26T04:43:16.128Z,11.57
2022-09-26T04:44:18.214Z,11.57
2022-09-26T04:45:19.701Z,11.57
2022-09-26T04:46:28.238Z,11.59
2022-09-26T04:47:32.519Z,11.60
2022-09-26T04:48:34.588Z,11.61
2022-09-26T04:49:36.626Z,11.54
2022-09-26T04:50:38.085Z,11.50
2022-09-26T04:51:39.696Z,11.49
2022-09-26T04:52:41.108Z,11.48
2022-09-26T04:53:43.715Z,11.38
2022-09-26T04:54:45.517Z,11.37
2022-09-26T04:55:47.997Z,11.39
2022-09-26T04:56:49.571Z,11.42
2022-09-26T04:57:51.115Z,11.51
2022-09-26T04:58:55.545Z,11.47
2022-09-26T04:59:57.380Z,11.41
2022-09-26T05:01:07.064Z,11.46
2022-09-26T05:02:08.642Z,11.45
2022-09-26T05:03:10.668Z,11.39
2022-09-26T05:04:12.454Z,11.36
2022-09-26T05:05:14.523Z,11.29
2022-09-26T05:06:17.625Z,11.31
2022-09-26T05:07:19.508Z,11.41
2022-09-26T05:08:21.076Z,11.57
2022-09-26T05:09:22.489Z,11.63
2022-09-26T05:10:24.379Z,11.58
2022-09-26T05:11:26.024Z,11.49
2022-09-26T05:12:27.461Z,11.39
2022-09-26T05:13:29.337Z,11.40
2022-09-26T05:14:31.223Z,11.34
2022-09-26T05:15:33.221Z,11.34
2022-09-26T05:16:34.855Z,11.38
2022-09-26T05:17:37.641Z,11.28
2022-09-26T05:18:39.512Z,11.36
2022-09-26T05:19:43.055Z,11.28
2022-09-26T05:20:48.288Z,11.25
2022-09-26T05:21:49.702Z,11.23
2022-09-26T05:22:51.183Z,11.27
2022-09-26T05:24:11.176Z,11.29
2022-09-26T05:25:30.890Z,11.36
2022-09-26T05:26:42.092Z,11.31
2022-09-26T05:27:43.758Z,11.26
2022-09-26T05:28:49.928Z,11.26
2022-09-26T05:29:57.342Z,11.27
2022-09-26T05:30:59.447Z,11.25
2022-09-26T05:32:01.499Z,11.27
2022-09-26T05:33:03.164Z,11.26
2022-09-26T05:34:18.459Z,11.26
2022-09-26T05:35:23.530Z,11.16
2022-09-26T05:36:27.385Z,11.19
2022-09-26T05:37:28.813Z,11.19
2022-09-26T05:38:30.208Z,11.22
2022-09-26T05:39:50.364Z,11.20
2022-09-26T05:40:56.734Z,11.24
2022-09-26T05:41:59.358Z,11.25
2022-09-26T05:43:04.275Z,11.40
2022-09-26T05:44:06.018Z,11.43
2022-09-26T05:45:08.793Z,11.34
2022-09-26T05:46:11.857Z,11.32
2022-09-26T05:47:13.481Z,11.30
2022-09-26T05:48:17.176Z,11.28
2022-09-26T05:49:19.017Z,11.32
2022-09-26T05:50:22.361Z,11.32
2022-09-26T05:51:24.471Z,11.45
2022-09-26T05:52:28.477Z,11.53
2022-09-26T05:53:31.287Z,11.70
2022-09-26T05:54:32.851Z,11.67
2022-09-26T05:55:37.254Z,11.62
2022-09-26T05:56:44.643Z,11.53
2022-09-26T05:57:54.074Z,11.52
2022-09-26T05:58:55.514Z,11.54
2022-09-26T05:59:57.271Z,11.59
2022-09-26T06:01:10.158Z,11.59
2022-09-26T06:02:14.319Z,11.48
2022-09-26T06:03:19.542Z,11.46
2022-09-26T06:04:21.410Z,11.48
2022-09-26T06:05:24.471Z,11.52
2022-09-26T06:06:26.197Z,11.54
2022-09-26T06:07:27.612Z,11.68
2022-09-26T06:08:29.137Z,11.76
2022-09-26T06:09:31.823Z,11.82
2022-09-26T06:10:33.313Z,11.82
2022-09-26T06:11:35.362Z,11.87
2022-09-26T06:12:38.122Z,11.97
2022-09-26T06:13:41.196Z,12.03
2022-09-26T06:14:47.080Z,12.04
2022-09-26T06:15:49.984Z,12.08
2022-09-26T06:16:51.443Z,12.09
2022-09-26T06:18:01.788Z,12.20
2022-09-26T06:19:03.529Z,12.39
2022-09-26T06:20:06.101Z,12.38
2022-09-26T06:21:09.716Z,12.41
2022-09-26T06:22:11.345Z,12.45
2022-09-26T06:23:13.045Z,12.50
2022-09-26T06:24:14.521Z,12.46
2022-09-26T06:25:16.435Z,12.47
2022-09-26T06:26:23.576Z,12.53
2022-09-26T06:27:25.464Z,12.62
2022-09-26T06:28:27.618Z,12.57
2022-09-26T06:29:29.880Z,12.65
2022-09-26T06:30:31.428Z,12.68
2022-09-26T06:31:33.519Z,12.65
2022-09-26T06:32:36.184Z,12.63
2022-09-26T06:33:37.656Z,12.73
2022-09-26T06:34:39.394Z,12.80
2022-09-26T06:35:40.819Z,12.90
2022-09-26T06:36:42.770Z,12.90
2022-09-26T06:37:48.306Z,12.95
2022-09-26T06:38:50.066Z,13.00
2022-09-26T06:39:54.682Z,12.93
2022-09-26T06:41:00.201Z,12.87
2022-09-26T06:42:03.075Z,12.86
2022-09-26T06:43:04.779Z,12.75
2022-09-26T06:44:06.261Z,12.85
2022-09-26T06:45:09.944Z,12.85
2022-09-26T06:46:12.772Z,12.76
2022-09-26T06:47:14.374Z,12.71
2022-09-26T06:48:20.985Z,12.60
2022-09-26T06:49:25.382Z,12.55
2022-09-26T06:50:27.028Z,12.37
2022-09-26T06:51:28.697Z,12.36
2022-09-26T06:52:34.027Z,12.45
2022-09-26T06:53:35.451Z,12.41
2022-09-26T06:54:36.949Z,12.38
2022-09-26T06:55:38.415Z,12.41
2022-09-26T06:56:39.878Z,12.37
2022-09-26T06:57:42.945Z,12.39
2022-09-26T06:58:45.341Z,12.42
2022-09-26T06:59:47.241Z,12.35
2022-09-26T07:00:48.904Z,12.04
2022-09-26T07:01:50.645Z,12.01
2022-09-26T07:02:54.445Z,12.03
2022-09-26T07:03:55.906Z,12.02
2022-09-26T07:04:57.356Z,12.07
2022-09-26T07:05:59.133Z,12.01
2022-09-26T07:07:00.537Z,12.00
2022-09-26T07:08:02.921Z,12.02
2022-09-26T07:09:08.604Z,12.10
2022-09-26T07:10:15.750Z,12.11
2022-09-26T07:11:46.248Z,11.92
2022-09-26T07:12:40.838Z,12.02
2022-09-26T07:13:42.366Z,12.03
2022-09-26T07:14:43.960Z,12.09
2022-09-26T07:15:46.331Z,12.20
2022-09-26T07:16:52.003Z,12.08
2022-09-26T07:17:53.590Z,12.08
2022-09-26T07:18:55.744Z,12.01
2022-09-26T07:19:57.283Z,11.94
2022-09-26T07:20:58.767Z,11.96
2022-09-26T07:22:00.228Z,11.93
2022-09-26T07:23:03.168Z,11.74
2022-09-26T07:24:04.660Z,11.77
2022-09-26T07:25:07.146Z,11.86
2022-09-26T07:26:08.561Z,11.90
2022-09-26T07:27:10.398Z,11.93
2022-09-26T07:28:12.085Z,11.96
2022-09-26T07:29:13.583Z,12.04
2022-09-26T07:30:15.209Z,12.19
2022-09-26T07:31:16.772Z,12.05
2022-09-26T07:32:18.293Z,12.27
2022-09-26T07:33:20.038Z,12.39
2022-09-26T07:34:24.974Z,12.59
2022-09-26T07:35:27.694Z,13.74
2022-09-26T07:36:29.219Z,14.95
2022-09-26T07:37:31.947Z,16.27
2022-09-26T07:38:33.372Z,17.51
2022-09-26T07:39:34.890Z,18.85
2022-09-26T07:40:36.387Z,19.95
2022-09-26T07:41:37.912Z,20.52
2022-09-26T07:42:39.631Z,19.60
2022-09-26T07:45:27.797Z,22.11
2022-09-26T07:46:43.696Z,23.67
2022-09-26T07:48:03.821Z,24.63
2022-09-26T07:49:23.656Z,25.72
2022-09-26T07:50:25.542Z,26.62
2022-09-26T07:51:27.092Z,26.63
2022-09-26T07:52:29.221Z,26.79
2022-09-26T07:53:30.750Z,27.20
2022-09-26T07:54:32.273Z,27.15
2022-09-26T07:55:53.741Z,26.90
2022-09-26T07:56:55.254Z,26.20
2022-09-26T07:57:57.967Z,25.72
2022-09-26T07:58:59.307Z,24.94
2022-09-26T08:00:22.495Z,23.54
2022-09-26T08:01:31.305Z,22.30
2022-09-26T08:02:35.032Z,21.24
2022-09-26T08:03:50.416Z,20.43
2022-09-26T08:04:57.622Z,19.78
2022-09-26T08:06:03.388Z,18.96
2022-09-26T08:07:04.948Z,17.88
2022-09-26T08:08:06.466Z,17.39
2022-09-26T08:09:08.062Z,17.22
2022-09-26T08:10:19.955Z,17.20
2022-09-26T08:11:23.496Z,17.30
2022-09-26T08:12:27.071Z,17.67
2022-09-26T08:13:30.114Z,18.58
2022-09-26T08:14:31.554Z,18.82
2022-09-26T08:15:33.040Z,19.32
2022-09-26T08:16:34.610Z,19.93
2022-09-26T08:17:36.190Z,20.94
2022-09-26T08:18:37.880Z,21.56
2022-09-26T08:19:39.330Z,21.40
2022-09-26T08:20:40.811Z,20.40
2022-09-26T08:21:42.297Z,19.85
2022-09-26T08:22:43.925Z,19.55
2022-09-26T08:23:46.979Z,19.02
2022-09-26T08:24:50.661Z,17.90
2022-09-26T08:25:52.098Z,17.22
2022-09-26T08:26:56.676Z,16.06
2022-09-26T08:27:59.558Z,15.75
2022-09-26T08:29:02.122Z,15.95
2022-09-26T08:30:04.446Z,15.87
2022-09-26T08:31:07.229Z,15.73
2022-09-26T08:32:08.728Z,15.33
2022-09-26T08:33:15.339Z,15.15
2022-09-26T08:34:21.321Z,14.78
2022-09-26T08:35:26.875Z,14.42
2022-09-26T08:36:28.374Z,14.47
2022-09-26T08:37:31.053Z,14.30
2022-09-26T08:38:33.472Z,14.28
2022-09-26T08:39:34.967Z,13.98
2022-09-26T08:40:49.643Z,13.82
2022-09-26T08:41:58.306Z,14.21
2022-09-26T08:43:31.775Z,14.42
2022-09-26T08:44:53.042Z,14.58
2022-09-26T08:46:34.999Z,14.45
2022-09-26T08:47:46.620Z,14.49
2022-09-26T08:49:12.724Z,14.12
2022-09-26T08:50:32.778Z,13.96
2022-09-26T08:51:40.663Z,13.80
2022-09-26T08:52:59.106Z,13.67
2022-09-26T08:54:15.967Z,13.45
2022-09-26T08:55:21.851Z,13.72
2022-09-26T08:56:31.973Z,13.94
2022-09-26T08:57:45.207Z,14.05
2022-09-26T08:58:52.310Z,13.99
2022-09-26T08:59:54.507Z,13.89
2022-09-26T09:01:00.793Z,14.06
2022-09-26T09:02:19.028Z,14.24
2022-09-26T09:03:32.959Z,14.22
2022-09-26T09:04:44.482Z,14.14
2022-09-26T09:05:50.237Z,14.11
2022-09-26T09:07:11.078Z,14.19
2022-09-26T09:08:22.167Z,14.25
2022-09-26T09:09:23.717Z,14.33
2022-09-26T09:10:55.540Z,14.58
2022-09-26T09:12:24.807Z,15.15
2022-09-26T09:13:30.749Z,15.66
2022-09-26T09:14:57.960Z,15.57
2022-09-26T09:16:21.811Z,15.59
2022-09-26T09:17:43.024Z,15.93
2022-09-26T09:19:00.429Z,15.83
2022-09-26T09:20:26.571Z,15.68
2022-09-26T09:21:43.574Z,15.48
2022-09-26T09:22:50.940Z,15.44
2022-09-26T09:24:18.832Z,15.34
2022-09-26T09:25:25.182Z,15.05
2022-09-26T09:28:33.674Z,14.44
2022-09-26T09:29:56.862Z,14.51
2022-09-26T09:31:11.415Z,14.51
2022-09-26T09:32:19.595Z,14.35
2022-09-26T09:33:39.218Z,14.27
2022-09-26T09:34:44.459Z,14.26
2022-09-26T09:35:48.893Z,14.26
2022-09-26T09:36:58.652Z,14.33
2022-09-26T09:38:01.564Z,14.46
2022-09-26T09:39:05.006Z,14.53
2022-09-26T09:40:16.570Z,14.56
2022-09-26T09:41:19.827Z,14.60
2022-09-26T09:42:30.268Z,14.66
2022-09-26T09:43:45.111Z,14.69
2022-09-26T09:44:50.464Z,14.62
2022-09-26T09:45:55.388Z,14.62
2022-09-26T09:46:57.157Z,14.58
2022-09-26T09:47:58.862Z,14.60
2022-09-26T09:49:09.451Z,14.53
2022-09-26T09:50:38.409Z,14.52
2022-09-26T09:52:26.643Z,14.59
2022-09-26T09:53:45.793Z,14.26
2022-09-26T09:55:16.556Z,14.00
2022-09-26T09:56:55.636Z,14.23
2022-09-26T09:58:15.732Z,14.40
2022-09-26T09:59:47.678Z,14.39
2022-09-26T10:01:09.847Z,14.56
2022-09-26T10:02:31.964Z,14.63
2022-09-26T10:03:39.949Z,14.58
2022-09-26T10:04:49.994Z,14.75
2022-09-26T10:05:57.650Z,14.81
2022-09-26T10:06:59.847Z,14.78
2022-09-26T10:08:03.079Z,14.65
2022-09-26T10:09:39.608Z,14.64
2022-09-26T10:10:49.754Z,14.70
2022-09-26T10:11:55.057Z,14.84
2022-09-26T10:12:57.175Z,14.82
2022-09-26T10:14:07.486Z,14.86
2022-09-26T10:15:19.756Z,14.77
2022-09-26T10:16:21.808Z,14.56
2022-09-26T10:17:24.070Z,14.62
2022-09-26T10:18:27.098Z,14.59
2022-09-26T10:19:37.471Z,14.55
2022-09-26T10:20:52.933Z,14.63
2022-09-26T10:21:54.506Z,14.58
2022-09-26T10:22:56.052Z,14.42
2022-09-26T10:23:58.899Z,14.31
2022-09-26T10:25:02.119Z,14.40
2022-09-26T10:26:09.094Z,14.40
2022-09-26T10:27:25.840Z,14.52
2022-09-26T10:28:42.841Z,14.55
2022-09-26T10:29:45.309Z,15.54
2022-09-26T10:30:50.044Z,16.18
2022-09-26T10:31:57.194Z,16.24
2022-09-26T10:33:00.748Z,16.05
2022-09-26T10:34:19.144Z,15.98
2022-09-26T10:35:26.756Z,15.91
2022-09-26T10:36:32.098Z,15.60
2022-09-26T10:37:36.902Z,15.30
2022-09-26T10:39:10.008Z,15.01
2022-09-26T10:40:43.750Z,15.04
2022-09-26T10:41:46.880Z,14.97
2022-09-26T10:42:48.408Z,15.01
2022-09-26T10:43:55.171Z,15.07
2022-09-26T10:44:58.428Z,15.06
2022-09-26T10:46:03.353Z,15.24
2022-09-26T10:47:10.632Z,15.28
2022-09-26T10:48:12.832Z,15.33
2022-09-26T10:49:15.825Z,15.23
2022-09-26T10:50:24.811Z,14.95
2022-09-26T10:51:45.008Z,14.80
2022-09-26T10:52:56.030Z,14.87
2022-09-26T10:54:15.020Z,14.97
2022-09-26T10:55:31.735Z,14.87
2022-09-26T10:56:43.357Z,14.80
2022-09-26T10:57:53.868Z,14.75
2022-09-26T10:58:59.886Z,14.87
2022-09-26T11:00:02.561Z,14.75
2022-09-26T11:01:04.292Z,14.60
2022-09-26T11:02:06.248Z,14.49
2022-09-26T11:03:20.223Z,14.43
2022-09-26T11:04:44.859Z,14.64
2022-09-26T11:06:00.313Z,14.70
2022-09-26T11:07:02.127Z,14.80
2022-09-26T11:08:07.530Z,14.78
2022-09-26T11:09:11.124Z,14.96
2022-09-26T11:10:17.059Z,15.01
2022-09-26T11:11:21.255Z,15.01
2022-09-26T11:12:28.159Z,15.05
2022-09-26T11:13:39.107Z,15.05
2022-09-26T11:14:45.680Z,14.99
2022-09-26T11:16:08.057Z,15.08
2022-09-26T11:17:09.628Z,15.13
2022-09-26T11:18:27.181Z,15.23
2022-09-26T11:19:35.388Z,15.30
2022-09-26T11:20:55.123Z,15.31
2022-09-26T11:22:32.837Z,15.29
2022-09-26T11:23:52.531Z,15.32
2022-09-26T11:25:43.382Z,15.31
2022-09-26T11:27:19.558Z,15.28
2022-09-26T11:28:31.032Z,15.31
2022-09-26T11:29:48.997Z,15.28
2022-09-26T11:30:57.052Z,15.31
2022-09-26T11:32:00.409Z,15.35
2022-09-26T11:33:08.601Z,15.21
2022-09-26T11:34:17.725Z,15.29
2022-09-26T11:35:43.991Z,15.22
2022-09-26T11:37:31.090Z,15.18
2022-09-26T11:38:39.209Z,15.18
2022-09-26T11:39:52.100Z,15.06
2022-09-26T11:41:36.878Z,15.17
2022-09-26T11:42:59.604Z,15.14
2022-09-26T11:44:06.871Z,15.10
2022-09-26T11:45:24.904Z,15.11
2022-09-26T11:46:47.503Z,14.96
2022-09-26T11:48:12.882Z,15.08
2022-09-26T11:49:35.824Z,15.11
2022-09-26T11:51:14.865Z,15.19
2022-09-26T11:52:44.379Z,15.07
2022-09-26T11:54:20.369Z,15.11
2022-09-26T11:55:37.771Z,15.20
2022-09-26T11:56:49.928Z,15.26
2022-09-26T11:58:04.347Z,15.31
2022-09-26T11:59:39.153Z,14.98
2022-09-26T12:01:10.353Z,14.76
2022-09-26T12:02:38.654Z,14.97
2022-09-26T12:04:14.443Z,14.97
2022-09-26T12:05:50.333Z,14.80
2022-09-26T12:07:08.853Z,15.07
2022-09-26T12:08:22.352Z,15.16
2022-09-26T12:09:42.249Z,15.25
2022-09-26T12:10:54.633Z,15.28
2022-09-26T12:12:03.194Z,15.38
2022-09-26T12:13:35.343Z,15.29
2022-09-26T12:15:02.452Z,15.14
2022-09-26T12:16:16.062Z,15.08
2022-09-26T12:17:36.617Z,15.18
2022-09-26T12:19:05.173Z,15.35
2022-09-26T12:20:28.029Z,15.32
2022-09-26T12:22:04.568Z,15.18
2022-09-26T12:23:34.052Z,15.08
2022-09-26T12:24:54.312Z,15.18
2022-09-26T12:26:17.062Z,15.22
2022-09-26T12:27:53.208Z,15.30
2022-09-26T12:29:05.126Z,15.40
2022-09-26T12:30:25.833Z,15.29
2022-09-26T12:31:39.206Z,15.52
2022-09-26T12:32:51.519Z,15.63
2022-09-26T12:34:13.757Z,15.65
2022-09-26T12:35:21.064Z,15.84
2022-09-26T12:36:54.805Z,16.11
2022-09-26T12:38:35.218Z,16.08
2022-09-26T12:39:57.364Z,15.78
2022-09-26T12:41:14.354Z,16.02
2022-09-26T12:42:37.983Z,16.11
2022-09-26T12:44:15.333Z,16.15
2022-09-26T12:45:32.331Z,16.23
2022-09-26T12:47:05.330Z,15.95
2022-09-26T12:48:32.567Z,15.99
2022-09-26T12:50:01.949Z,15.98
2022-09-26T12:51:45.131Z,15.62
2022-09-26T12:53:24.650Z,15.46
2022-09-26T12:55:14.475Z,15.43
2022-09-26T12:56:38.310Z,15.48
2022-09-26T12:57:51.764Z,15.59
2022-09-26T12:59:21.243Z,15.60
2022-09-26T13:00:23.250Z,15.57
2022-09-26T13:01:50.125Z,15.14
2022-09-26T13:03:16.665Z,15.17
2022-09-26T13:04:55.798Z,15.17
2022-09-26T13:06:18.557Z,15.30
2022-09-26T13:07:49.284Z,15.32
2022-09-26T13:09:06.733Z,15.26
2022-09-26T13:10:24.027Z,15.31
2022-09-26T13:11:59.560Z,14.93
2022-09-26T13:13:18.460Z,15.18
2022-09-26T13:14:39.505Z,15.23
2022-09-26T13:16:04.814Z,15.26
2022-09-26T13:17:16.583Z,15.36
2022-09-26T13:18:26.706Z,15.45
2022-09-26T13:19:44.887Z,15.47
2022-09-26T13:20:51.845Z,15.57
2022-09-26T13:22:00.212Z,15.58
2022-09-26T13:23:20.675Z,15.52
2022-09-26T13:24:28.468Z,15.46
2022-09-26T13:25:37.280Z,15.50
2022-09-26T13:26:48.218Z,15.58
2022-09-26T13:27:52.761Z,15.68
2022-09-26T13:29:24.440Z,15.62
2022-09-26T13:30:36.168Z,15.61
2022-09-26T13:31:46.219Z,15.81
2022-09-26T13:33:06.056Z,15.85
2022-09-26T13:34:16.941Z,15.57
2022-09-26T13:35:24.464Z,15.58
2022-09-26T13:36:28.195Z,15.55
2022-09-26T13:38:10.477Z,15.44
2022-09-26T13:39:33.318Z,15.56
2022-09-26T13:40:39.350Z,15.56
2022-09-26T13:42:01.378Z,15.21
2022-09-26T13:43:21.616Z,15.07
2022-09-26T13:44:49.658Z,15.16
2022-09-26T13:46:00.216Z,15.24
2022-09-26T13:47:20.349Z,15.23
2022-09-26T13:48:38.691Z,15.17
2022-09-26T13:49:51.755Z,15.09
2022-09-26T13:51:18.341Z,15.08
2022-09-26T13:52:26.638Z,15.19
2022-09-26T13:53:28.952Z,15.29
2022-09-26T13:55:00.462Z,15.33
2022-09-26T13:56:30.430Z,15.36
2022-09-26T13:57:31.963Z,15.37
2022-09-26T13:58:39.682Z,15.43
2022-09-26T13:59:52.559Z,15.54
2022-09-26T14:00:54.482Z,15.47
2022-09-26T14:02:24.567Z,15.41
2022-09-26T14:03:26.092Z,15.42
2022-09-26T14:04:35.936Z,15.38
2022-09-26T14:05:49.866Z,15.47
2022-09-26T14:07:28.038Z,15.61
2022-09-26T14:08:54.849Z,15.73
2022-09-26T14:10:02.122Z,15.56
2022-09-26T14:11:14.763Z,15.42
2022-09-26T14:12:31.272Z,15.51
2022-09-26T14:13:36.540Z,15.42
2022-09-26T14:14:43.427Z,15.47
2022-09-26T14:15:48.087Z,15.55
2022-09-26T14:17:01.585Z,15.20
2022-09-26T14:18:31.984Z,15.35
2022-09-26T14:19:46.472Z,15.30
2022-09-26T14:20:59.154Z,15.20
2022-09-26T14:22:05.711Z,15.07
2022-09-26T14:23:53.678Z,15.23
2022-09-26T14:24:58.255Z,15.32
2022-09-26T14:26:06.966Z,15.03
2022-09-26T14:27:11.385Z,14.87
2022-09-26T14:28:33.353Z,14.71
2022-09-26T14:29:44.619Z,14.92
2022-09-26T14:31:17.173Z,15.01
2022-09-26T14:32:36.035Z,15.14
2022-09-26T14:33:38.481Z,15.21
2022-09-26T14:34:45.691Z,15.04
2022-09-26T14:35:48.576Z,15.09
2022-09-26T14:36:52.025Z,15.30
2022-09-26T14:38:00.841Z,15.49
2022-09-26T14:39:05.049Z,15.56
2022-09-26T14:40:19.360Z,15.65
2022-09-26T14:41:22.528Z,15.62
2022-09-26T14:42:27.568Z,15.57
2022-09-26T14:43:30.297Z,15.49
2022-09-26T14:44:36.951Z,15.57
2022-09-26T14:45:38.686Z,15.57
2022-09-26T14:46:41.824Z,15.42
2022-09-26T14:47:55.100Z,15.36
2022-09-26T14:49:05.323Z,15.67
2022-09-26T14:50:16.122Z,15.88
2022-09-26T14:51:19.242Z,16.05
2022-09-26T14:52:21.111Z,16.16
2022-09-26T14:53:29.613Z,16.15
2022-09-26T14:54:40.821Z,16.37
2022-09-26T14:55:55.370Z,16.33
2022-09-26T14:57:03.655Z,16.60
2022-09-26T14:58:30.790Z,16.82